Time;durP1;ratioP1;P1;durP2;ratioP2;P2;SDS_P1;SDS_P2;PMS_P1;PMS_P2;Temp;Humidity;BMP_temperature;BMP_pressure;BME280_temperature;BME280_humidity;BME280_pressure;Samples;Min_cycle;Max_cycle;Signal;HPM_P1;HPM_P2
2022/07/12 00:02:15;;;;;;;1.88;0.63;;;12.60;99.90;;;11.50;81.66;101782.03;5013496;28;20053;-77
2022/07/12 00:04:41;;;;;;;4.82;0.70;;;12.50;99.90;;;11.49;81.91;101782.97;5012713;28;20227;-76
2022/07/12 00:07:07;;;;;;;2.40;0.80;;;12.50;99.90;;;11.46;82.28;101783.06;5010920;28;20094;-77
2022/07/12 00:09:33;;;;;;;2.20;0.90;;;12.50;99.90;;;11.38;83.38;101787.72;5024145;28;20118;-76
2022/07/12 00:12:01;;;;;;;1.80;0.60;;;12.50;99.90;;;11.34;84.01;101794.88;5029860;28;20486;-76
2022/07/12 00:14:27;;;;;;;7.13;0.95;;;12.40;99.90;;;11.31;83.70;101797.59;5013500;28;20503;-76
2022/07/12 00:16:53;;;;;;;3.22;0.82;;;12.40;99.90;;;11.24;84.65;101785.56;5019307;28;20033;-76
2022/07/12 00:19:19;;;;;;;2.20;0.80;;;12.30;99.90;;;11.20;84.62;101784.78;5046007;28;20527;-77
2022/07/12 00:21:45;;;;;;;2.90;1.02;;;12.30;99.90;;;11.16;84.91;101782.28;5021534;28;20397;-76
2022/07/12 00:24:11;;;;;;;3.35;0.70;;;12.20;99.90;;;11.10;84.79;101783.38;5009241;28;20017;-77
2022/07/12 00:26:37;;;;;;;2.25;0.82;;;12.20;99.90;;;11.05;85.18;101777.38;5008312;28;20048;-76
2022/07/12 00:29:02;;;;;;;4.03;0.80;;;12.10;99.90;;;10.96;85.47;101777.66;5020957;28;20064;-76
2022/07/12 00:31:28;;;;;;;4.43;1.20;;;12.00;99.90;;;10.87;86.18;101779.66;5012856;28;20075;-76
2022/07/12 00:33:54;;;;;;;7.38;0.88;;;12.00;99.90;;;10.82;86.51;101768.41;5029424;28;20039;-76
2022/07/12 00:36:20;;;;;;;1.92;0.80;;;11.90;99.90;;;10.79;86.37;101778.19;4998654;28;20107;-76
2022/07/12 00:38:46;;;;;;;3.40;1.00;;;11.90;99.90;;;10.72;87.87;101774.88;5019992;28;20030;-76
2022/07/12 00:41:12;;;;;;;3.00;1.10;;;11.80;99.90;;;10.67;88.71;101769.75;5006856;28;20037;-77
2022/07/12 00:43:38;;;;;;;5.05;0.90;;;11.80;99.90;;;10.63;89.98;101768.13;5022600;28;20041;-76
2022/07/12 00:46:04;;;;;;;2.22;0.90;;;11.70;99.90;;;10.63;88.71;101770.75;5026512;28;20147;-76
2022/07/12 00:48:32;;;;;;;10.23;1.08;;;11.70;99.90;;;10.62;88.64;101768.16;5007103;28;20017;-77
2022/07/12 00:51:00;;;;;;;8.50;0.93;;;11.70;99.90;;;10.56;89.78;101776.22;5006514;28;20447;-76
2022/07/12 00:53:26;;;;;;;8.68;1.08;;;11.60;99.90;;;10.48;91.84;101779.09;5028082;28;20034;-76
2022/07/12 00:55:57;;;;;;;5.63;1.08;;;11.60;99.90;;;10.46;92.86;101781.78;5013680;28;20121;-77
2022/07/12 00:58:27;;;;;;;6.93;1.00;;;11.60;99.90;;;10.50;92.57;101800.13;5013430;28;20049;-77
2022/07/12 01:00:56;;;;;;;2.42;0.82;;;11.60;99.90;;;10.50;91.72;101789.59;5017291;28;20055;-77
2022/07/12 01:03:22;;;;;;;4.95;0.70;;;11.60;99.90;;;10.53;91.10;101789.50;5018646;28;20025;-76
2022/07/12 01:05:49;;;;;;;2.50;0.80;;;11.60;99.90;;;10.54;90.95;101789.47;5008413;28;20437;-76
2022/07/12 01:08:16;;;;;;;3.53;1.10;;;11.60;99.90;;;10.54;90.76;101792.09;4982965;28;20148;-76
2022/07/12 01:10:44;;;;;;;3.70;1.05;;;11.60;99.90;;;10.50;92.39;101792.25;5007605;28;20034;-76
2022/07/12 01:13:11;;;;;;;7.03;1.15;;;11.60;99.90;;;10.49;92.91;101791.34;5021588;28;20025;-76
2022/07/12 01:15:37;;;;;;;2.70;1.05;;;11.60;99.90;;;10.50;92.90;101789.59;5027725;28;20045;-76
2022/07/12 01:18:04;;;;;;;4.47;0.90;;;11.60;99.90;;;10.44;92.72;101794.13;4999481;28;20431;-77
2022/07/12 01:20:32;;;;;;;6.03;1.10;;;11.50;99.90;;;10.43;92.51;101787.16;5014120;28;20036;-75
2022/07/12 01:22:59;;;;;;;6.63;1.10;;;11.50;99.90;;;10.32;94.92;101790.97;5009810;28;20422;-76
2022/07/12 01:25:25;;;;;;;4.25;1.10;;;11.50;99.90;;;10.34;95.06;101802.31;5010572;28;20045;-77
2022/07/12 01:27:52;;;;;;;3.75;1.02;;;11.40;99.90;;;10.26;96.24;101792.00;5027705;28;20033;-77
2022/07/12 01:30:18;;;;;;;4.45;1.13;;;11.40;99.90;;;10.22;97.54;101793.84;5019259;28;20028;-78
2022/07/12 01:32:44;;;;;;;4.40;1.08;;;11.40;99.90;;;10.23;97.34;101786.81;5019937;28;20088;-77
2022/07/12 01:35:10;;;;;;;3.60;1.17;;;11.30;99.90;;;10.24;97.06;101788.56;5019973;28;20056;-76
2022/07/12 01:37:40;;;;;;;6.60;1.33;;;11.40;99.90;;;10.24;96.71;101792.03;5037185;28;20029;-77
2022/07/12 01:40:12;;;;;;;2.53;0.80;;;11.30;99.90;;;10.26;96.48;101784.09;4996523;28;20026;-77
2022/07/12 01:42:38;;;;;;;3.70;1.10;;;11.30;99.90;;;10.29;96.82;101791.94;4982657;28;20040;-76
2022/07/12 01:45:07;;;;;;;4.00;0.93;;;11.40;99.90;;;10.33;96.98;101795.34;5009149;28;20484;-77
2022/07/12 01:47:34;;;;;;;4.60;1.00;;;11.40;99.90;;;10.33;97.62;101796.22;5014124;28;20033;-77
2022/07/12 01:50:00;;;;;;;9.18;1.15;;;11.40;99.90;;;10.31;97.82;101795.38;4981832;28;20056;-76
2022/07/12 01:52:26;;;;;;;4.32;1.13;;;11.40;99.90;;;10.32;97.15;101794.47;5013911;28;20048;-77
2022/07/12 01:54:54;;;;;;;5.55;1.25;;;11.40;99.90;;;10.32;96.83;101794.47;4991941;28;20033;-76
2022/07/12 01:57:20;;;;;;;5.25;1.00;;;11.40;99.90;;;10.32;96.88;101790.97;4993455;28;20069;-77
2022/07/12 01:59:47;;;;;;;7.75;1.77;;;11.40;99.90;;;10.34;97.77;101783.91;5010989;28;20032;-77
2022/07/12 02:02:12;;;;;;;2.50;0.90;;;11.40;99.90;;;10.34;98.27;101797.91;5010849;28;20048;-78
2022/07/12 02:04:38;;;;;;;6.68;1.50;;;11.40;99.90;;;10.34;98.46;101787.38;5011430;28;20021;-76
2022/07/12 02:07:05;;;;;;;6.47;1.20;;;11.40;99.90;;;10.34;98.18;101797.91;5011108;28;20018;-77
2022/07/12 02:09:31;;;;;;;4.53;1.33;;;11.40;99.90;;;10.32;98.05;101791.84;5016332;28;20412;-77
2022/07/12 02:11:58;;;;;;;9.40;1.40;;;11.40;99.90;;;10.29;98.04;101796.31;5018181;28;20029;-76
2022/07/12 02:14:26;;;;;;;7.70;1.90;;;11.30;99.90;;;10.22;97.82;101788.59;5010397;28;20735;-77
2022/07/12 02:16:53;;;;;;;9.13;2.20;;;11.30;99.90;;;10.18;97.92;101796.63;5020990;28;20045;-76
2022/07/12 02:19:18;;;;;;;6.25;1.63;;;11.30;99.90;;;10.14;98.18;101794.97;5014782;28;20041;-76
2022/07/12 02:21:44;;;;;;;12.82;1.63;;;11.20;99.90;;;10.11;98.44;101795.03;5012918;28;20119;-76
2022/07/12 02:24:10;;;;;;;5.57;1.50;;;11.20;99.90;;;10.06;98.53;101793.41;4993179;28;20037;-76
2022/07/12 02:26:36;;;;;;;7.20;1.83;;;11.20;99.90;;;10.01;98.45;101784.75;5018433;28;20117;-76
2022/07/12 02:29:06;;;;;;;9.68;1.45;;;11.10;99.90;;;9.96;98.90;101791.94;5026937;28;20056;-77
2022/07/12 02:31:32;;;;;;;6.15;1.65;;;11.10;99.90;;;9.88;99.31;101783.38;5003073;28;20047;-77
2022/07/12 02:33:58;;;;;;;4.57;1.65;;;11.00;99.90;;;9.81;100.00;101782.69;4995326;28;20025;-77
2022/07/12 02:36:25;;;;;;;4.85;1.63;;;10.90;99.90;;;9.80;100.00;101790.59;4990717;28;20392;-76
2022/07/12 02:38:51;;;;;;;4.32;1.50;;;10.90;99.90;;;9.77;100.00;101793.34;5001985;28;20033;-78
2022/07/12 02:41:17;;;;;;;9.57;1.42;;;10.90;99.90;;;9.75;100.00;101788.09;5002861;28;20049;-76
2022/07/12 02:43:45;;;;;;;5.47;1.40;;;10.90;99.90;;;9.75;100.00;101790.72;5042409;28;20030;-77
2022/07/12 02:46:13;;;;;;;6.53;1.50;;;10.90;99.90;;;9.75;100.00;101798.63;5009067;28;20025;-77
2022/07/12 02:48:41;;;;;;;2.97;1.38;;;10.90;99.90;;;9.76;100.00;101799.47;4992798;28;20566;-78
2022/07/12 02:51:08;;;;;;;3.58;1.25;;;10.90;99.90;;;9.78;100.00;101801.19;5019371;28;20393;-77
2022/07/12 02:53:35;;;;;;;7.85;1.40;;;10.90;99.90;;;9.81;100.00;101802.88;5012190;28;20026;-77
2022/07/12 02:56:02;;;;;;;4.78;1.38;;;11.00;99.90;;;9.87;100.00;101802.72;4969023;28;20033;-77
2022/07/12 02:58:28;;;;;;;4.03;1.70;;;11.00;99.90;;;9.94;100.00;101811.31;5002486;28;20572;-77
2022/07/12 03:00:55;;;;;;;4.25;1.77;;;11.10;99.90;;;10.01;100.00;101804.97;4999723;28;20087;-77
2022/07/12 03:03:21;;;;;;;5.38;1.70;;;11.10;99.90;;;10.10;100.00;101814.38;5002789;28;20052;-77
2022/07/12 03:05:47;;;;;;;4.57;1.60;;;11.20;99.90;;;10.16;100.00;101808.94;5014641;28;20045;-77
2022/07/12 03:08:13;;;;;;;5.00;1.63;;;11.20;99.90;;;10.19;100.00;101811.47;5015737;28;20034;-77
2022/07/12 03:10:41;;;;;;;5.05;1.73;;;11.30;99.90;;;10.20;100.00;101816.72;5000976;28;20056;-77
2022/07/12 03:13:10;;;;;;;5.05;2.03;;;11.30;99.90;;;10.26;100.00;101820.97;5013117;28;20076;-76
2022/07/12 03:15:36;;;;;;;5.47;1.55;;;11.30;99.90;;;10.30;100.00;101816.47;5019824;28;20037;-77
2022/07/12 03:18:02;;;;;;;8.52;1.38;;;11.30;99.90;;;10.31;100.00;101812.97;5022639;28;20041;-76
2022/07/12 03:20:31;;;;;;;4.82;1.63;;;11.30;99.90;;;10.34;100.00;101812.84;4977632;28;20549;-76
2022/07/12 03:22:57;;;;;;;4.78;1.42;;;11.40;99.90;;;10.40;100.00;101818.81;4999063;28;20374;-77
2022/07/12 03:25:25;;;;;;;4.45;1.85;;;11.50;99.90;;;10.46;100.00;101826.53;5031732;28;20025;-77
2022/07/12 03:27:51;;;;;;;6.85;1.65;;;11.50;99.90;;;10.57;100.00;101825.38;5020159;28;20394;-77
2022/07/12 03:30:17;;;;;;;6.38;1.40;;;11.60;99.90;;;10.64;100.00;101834.81;5004189;28;20018;-77
2022/07/12 03:32:44;;;;;;;5.38;1.35;;;11.70;99.90;;;10.72;100.00;101829.34;5037850;28;20048;-76
2022/07/12 03:35:10;;;;;;;4.82;1.58;;;11.70;99.90;;;10.75;100.00;101829.22;5016216;28;20017;-77
2022/07/12 03:37:49;;;;;;;7.25;1.90;;;11.80;99.90;;;10.83;100.00;101835.13;5011476;28;20109;-76
2022/07/12 03:40:19;;;;;;;9.05;2.00;;;11.90;99.90;;;10.93;100.00;101835.72;5012307;28;20033;-77
2022/07/12 03:42:46;;;;;;;6.78;1.83;;;11.90;99.90;;;11.03;100.00;101839.81;5032423;28;20029;-76
2022/07/12 03:45:14;;;;;;;5.85;1.95;;;12.00;99.90;;;11.15;100.00;101843.84;5015523;28;20623;-77
2022/07/12 03:47:41;;;;;;;6.13;1.80;;;12.40;99.90;;;11.60;100.00;101845.94;5013179;28;20049;-77
2022/07/12 03:50:12;;;;;;;6.78;1.63;;;14.20;99.90;;;13.42;100.00;101848.09;5014945;28;20128;-77
2022/07/12 03:52:39;;;;;;;6.15;1.77;;;16.10;99.90;;;15.52;97.34;101859.03;5006777;28;20029;-77
2022/07/12 03:55:06;;;;;;;9.05;1.88;;;17.90;99.90;;;17.53;81.96;101866.06;5036806;28;20025;-77
2022/07/12 03:57:33;;;;;;;3.45;1.58;;;19.60;99.90;;;19.23;71.62;101870.84;5022372;28;20085;-77
2022/07/12 04:00:03;;;;;;;2.63;1.30;;;21.00;99.90;;;20.76;65.13;101874.78;5011382;28;20112;-77
2022/07/12 04:02:28;;;;;;;6.75;1.45;;;22.30;99.90;;;22.11;60.25;101881.66;4992795;28;20576;-77
2022/07/12 04:04:54;;;;;;;3.60;1.02;;;23.50;99.90;;;23.36;56.63;101887.06;5006951;28;20164;-77
2022/07/12 04:07:21;;;;;;;8.70;1.63;;;24.50;99.90;;;24.43;53.44;101896.81;5027058;28;20029;-77
2022/07/12 04:09:47;;;;;;;5.40;1.38;;;25.40;99.60;;;25.32;50.99;101890.78;5032184;28;20021;-77
2022/07/12 04:12:13;;;;;;;5.32;1.15;;;26.20;97.20;;;26.02;48.90;101890.66;5030549;28;20449;-78
2022/07/12 04:14:38;;;;;;;5.95;1.25;;;26.90;97.20;;;26.84;47.42;101903.50;5007126;28;20033;-77
2022/07/12 04:17:05;;;;;;;4.50;1.00;;;27.50;96.20;;;27.61;45.45;101909.47;5021144;28;20266;-78
2022/07/12 04:19:33;;;;;;;6.43;1.40;;;28.20;95.00;;;28.32;44.05;101924.78;5005687;28;20397;-78
2022/07/12 04:21:59;;;;;;;3.47;1.00;;;28.80;93.60;;;28.93;42.86;101928.34;5034345;28;20050;-77
2022/07/12 04:24:25;;;;;;;2.95;1.10;;;29.30;93.50;;;29.48;42.11;101926.97;5030387;28;20123;-77
2022/07/12 04:26:51;;;;;;;4.45;0.90;;;29.70;92.50;;;29.91;41.01;101935.88;4996220;28;20451;-77
2022/07/12 04:29:20;;;;;;;3.45;1.00;;;30.00;92.20;;;30.52;40.20;101946.34;5020199;28;20025;-77
2022/07/12 04:31:47;;;;;;;3.60;1.00;;;30.40;91.60;;;30.92;39.08;101937.25;5021671;28;20041;-77
2022/07/12 04:34:16;;;;;;;7.45;1.45;;;30.60;90.20;;;30.99;39.02;101948.28;5028683;28;20175;-78
2022/07/12 04:36:47;;;;;;;5.28;1.27;;;30.60;90.30;;;31.04;38.63;101935.84;5022116;28;20025;-78
2022/07/12 04:39:15;;;;;;;4.60;1.20;;;30.90;90.90;;;31.72;38.00;101948.91;5012514;28;20025;-77
2022/07/12 04:41:41;;;;;;;3.75;1.30;;;31.10;88.00;;;31.92;37.33;101955.53;5004258;28;20117;-78
2022/07/12 04:44:08;;;;;;;4.40;1.25;;;30.90;87.60;;;31.26;38.15;101955.97;5018731;28;20028;-77
2022/07/12 04:46:34;;;;;;;5.20;1.40;;;30.40;88.60;;;30.66;39.16;101948.38;5009168;28;20489;-77
2022/07/12 04:49:00;;;;;;;5.70;1.38;;;30.00;89.80;;;30.12;40.01;101945.38;5010416;28;20045;-76
2022/07/12 04:51:26;;;;;;;8.13;1.60;;;29.80;90.60;;;30.56;39.85;101964.00;5007891;28;20025;-75
2022/07/12 04:53:55;;;;;;;7.05;1.50;;;29.80;90.50;;;30.89;38.99;101962.09;5019152;28;20052;-75
2022/07/12 04:56:21;;;;;;;3.10;1.20;;;29.80;90.40;;;30.91;38.93;101970.94;5022239;28;20021;-75
2022/07/12 04:58:47;;;;;;;4.15;1.40;;;29.70;90.70;;;30.60;39.56;101960.78;5036078;28;20029;-76
2022/07/12 05:01:13;;;;;;;5.50;1.50;;;29.60;90.80;;;30.65;39.75;101976.59;5028509;28;21365;-75
2022/07/12 05:03:38;;;;;;;4.07;1.73;;;29.30;90.90;;;30.23;40.07;101975.75;5031201;28;20033;-76
2022/07/12 05:06:05;;;;;;;5.85;1.58;;;29.10;91.30;;;30.19;40.35;101984.41;5036329;28;20045;-75
2022/07/12 05:08:30;;;;;;;5.82;1.50;;;29.10;91.80;;;30.79;39.72;101978.56;5021994;28;20561;-75
2022/07/12 05:10:56;;;;;;;5.40;1.40;;;29.10;91.70;;;30.83;39.84;101992.66;5006799;28;20037;-76
2022/07/12 05:13:22;;;;;;;4.93;1.75;;;29.30;91.90;;;31.21;39.25;101991.03;5024827;22;20049;-75
2022/07/12 05:15:48;;;;;;;5.85;1.52;;;29.40;91.90;;;31.52;38.68;101992.94;4997326;28;20034;-75
2022/07/12 05:18:14;;;;;;;3.58;1.55;;;29.70;91.80;;;31.95;38.32;102004.22;4989490;28;20029;-76
2022/07/12 05:20:40;;;;;;;6.68;1.45;;;29.70;91.70;;;31.91;38.64;101991.13;5004936;28;20079;-75
2022/07/12 05:23:05;;;;;;;4.45;1.52;;;29.70;91.60;;;31.83;38.53;101997.47;4946785;28;20018;-76
2022/07/12 05:25:31;;;;;;;6.47;1.73;;;29.80;91.80;;;32.19;38.57;102002.34;4948171;28;20022;-75
2022/07/12 05:27:57;;;;;;;4.57;1.42;;;30.00;91.80;;;32.43;38.22;102004.81;4967869;28;20027;-76
2022/07/12 05:30:23;;;;;;;6.88;1.52;;;30.30;92.00;;;32.95;37.69;102013.19;4977247;28;20036;-76
2022/07/12 05:32:51;;;;;;;6.43;1.20;;;30.80;91.60;;;33.53;36.62;102016.88;4988364;28;20025;-76
2022/07/12 05:35:17;;;;;;;6.30;1.67;;;31.20;91.30;;;33.89;36.33;102030.53;4972590;28;20022;-76
2022/07/12 05:37:43;;;;;;;5.35;1.52;;;31.40;90.80;;;33.85;36.12;102022.94;4962732;28;20029;-78
2022/07/12 05:40:09;;;;;;;8.80;1.20;;;31.60;90.80;;;34.21;36.13;102028.34;4948242;28;20385;-75
2022/07/12 05:42:36;;;;;;;4.35;1.38;;;32.00;91.10;;;34.99;35.39;102028.28;4948972;28;20038;-76
2022/07/12 05:45:03;;;;;;;3.00;1.20;;;32.40;90.40;;;35.43;34.96;102021.53;4963885;28;20026;-76
2022/07/12 05:47:29;;;;;;;4.20;1.33;;;32.80;90.00;;;35.72;34.40;102025.88;4949283;28;20061;-76
2022/07/12 05:49:57;;;;;;;8.38;1.65;;;32.70;89.30;;;35.08;35.03;102029.81;4980110;28;20022;-77
2022/07/12 05:55:07;;;;;;;3.78;1.10;;;32.60;89.80;;;34.83;35.28;102023.13;4957735;28;20040;-77
2022/07/12 05:57:33;;;;;;;5.70;1.20;;;32.50;90.00;;;34.64;35.52;102022.78;4974738;28;20021;-76
2022/07/12 05:59:59;;;;;;;6.03;1.58;;;32.40;89.90;;;34.51;35.92;102028.16;4952897;28;20041;-77
2022/07/12 06:02:27;;;;;;;4.32;1.52;;;32.50;90.50;;;34.87;35.74;102038.94;4940110;28;20084;-78
2022/07/12 06:04:53;;;;;;;7.53;1.42;;;32.70;90.20;;;34.85;35.84;102029.25;4955772;28;22635;-77
2022/07/12 06:07:19;;;;;;;4.18;1.27;;;33.00;90.30;;;35.36;35.45;102039.84;4948983;28;24096;-77
2022/07/12 06:09:45;;;;;;;7.75;1.77;;;33.10;90.80;;;35.75;34.41;102043.81;4974996;28;20022;-77
2022/07/12 06:12:10;;;;;;;6.50;1.55;;;33.90;86.60;;;36.07;34.07;102042.16;4941209;28;20033;-77
2022/07/12 06:14:36;;;;;;;6.78;1.55;;;34.50;87.00;;;36.94;33.45;102040.22;4968972;28;20034;-77
2022/07/12 06:17:05;;;;;;;6.10;1.38;;;34.80;83.90;;;36.63;33.28;102037.34;4956853;28;20037;-77
2022/07/12 06:19:31;;;;;;;4.10;1.17;;;34.80;83.60;;;36.46;33.11;102048.72;4983180;28;20049;-77
2022/07/12 06:21:56;;;;;;;7.20;1.25;;;34.90;83.90;;;36.45;33.11;102044.28;4961258;28;20034;-77
2022/07/12 06:24:22;;;;;;;6.50;1.48;;;34.40;82.20;;;35.20;34.31;102030.09;4953308;28;20122;-77
2022/07/12 06:26:48;;;;;;;7.18;1.30;;;34.20;82.90;;;35.29;34.03;102036.22;4950447;28;20031;-77
2022/07/12 06:29:14;;;;;;;9.02;1.20;;;34.20;84.50;;;35.78;34.69;102034.31;4968133;28;20093;-76
2022/07/12 06:31:39;;;;;;;4.93;1.35;;;34.40;83.60;;;36.02;33.37;102035.59;4951256;28;20026;-77
2022/07/12 06:34:05;;;;;;;3.35;1.10;;;34.80;82.70;;;36.40;32.52;102035.88;4959003;28;20495;-76
2022/07/12 06:36:31;;;;;;;6.82;1.23;;;34.90;82.80;;;36.25;32.81;102036.06;4973303;28;20023;-76
2022/07/12 06:38:57;;;;;;;6.03;1.40;;;35.00;83.20;;;36.29;32.53;102033.75;4936344;28;20040;-77
2022/07/12 06:41:25;;;;;;;6.20;1.30;;;35.40;81.30;;;36.74;32.38;102031.22;4958999;28;20057;-77
2022/07/12 06:43:51;;;;;;;7.95;1.50;;;35.20;79.80;;;35.93;33.15;102026.75;4982196;28;20026;-77
2022/07/12 06:46:16;;;;;;;3.20;1.20;;;35.30;79.50;;;35.84;32.97;102028.84;4948618;28;20469;-77
2022/07/12 06:48:42;;;;;;;5.80;1.10;;;35.20;79.70;;;35.90;32.60;102028.00;4965008;28;20033;-77
2022/07/12 06:51:08;;;;;;;5.03;1.40;;;35.20;79.60;;;35.65;33.02;102035.13;4964645;28;20547;-79
2022/07/12 06:53:34;;;;;;;5.88;1.40;;;35.00;79.10;;;35.44;33.32;102033.34;4973352;28;20050;-76
2022/07/12 06:56:00;;;;;;;6.68;1.38;;;35.00;80.90;;;35.43;33.65;102028.94;4970594;28;20083;-77
2022/07/12 06:58:25;;;;;;;6.88;1.55;;;34.90;80.70;;;35.37;33.89;102016.88;4969774;28;20501;-78
2022/07/12 07:00:53;;;;;;;8.55;1.60;;;34.70;79.20;;;34.57;34.05;102013.69;4944998;28;20025;-76
2022/07/12 07:03:19;;;;;;;6.45;1.33;;;34.70;78.00;;;34.56;33.58;102012.00;4972247;28;20482;-77
2022/07/12 07:05:45;;;;;;;7.25;1.05;;;34.60;78.60;;;34.90;33.00;102018.53;4951758;28;21424;-76
2022/07/12 07:08:11;;;;;;;4.90;1.20;;;34.30;78.40;;;34.03;34.38;102008.81;4960363;28;20033;-77
2022/07/12 07:10:36;;;;;;;3.15;1.20;;;34.40;80.00;;;34.68;33.54;102010.41;4980955;28;20030;-77
2022/07/12 07:13:10;;;;;;;2.03;1.02;;;34.50;78.40;;;34.65;33.70;102002.63;4984334;28;20042;-77
2022/07/12 07:15:39;;;;;;;7.75;1.40;;;34.60;76.70;;;34.74;32.18;102014.25;4974591;28;20011;-77
2022/07/12 07:18:05;;;;;;;1.75;0.68;;;34.60;73.00;;;34.61;31.34;102008.66;4980658;28;20060;-77
2022/07/12 07:20:30;;;;;;;2.67;0.90;;;34.60;72.60;;;34.40;31.16;102018.59;4964065;28;20034;-77
2022/07/12 07:22:56;;;;;;;3.08;0.98;;;34.30;70.20;;;33.95;30.76;102007.03;4965352;28;20518;-76
2022/07/12 07:25:22;;;;;;;2.45;0.75;;;34.10;71.20;;;33.78;31.07;102016.53;4982208;28;20014;-76
2022/07/12 07:27:48;;;;;;;3.28;0.80;;;33.90;74.00;;;33.64;31.58;102010.94;4971337;28;20037;-77
2022/07/12 07:32:58;;;;;;;2.20;0.80;;;33.50;72.80;;;33.18;32.03;102010.38;4969022;28;20045;-77
2022/07/12 07:35:24;;;;;;;4.03;0.80;;;33.70;73.80;;;33.95;31.95;102009.78;4949488;28;20441;-77
2022/07/12 07:37:50;;;;;;;4.25;0.80;;;33.80;74.00;;;33.73;31.90;102008.09;4973118;28;20041;-77
2022/07/12 07:40:15;;;;;;;3.35;0.82;;;33.60;71.10;;;33.36;31.50;102008.06;4981525;28;20406;-77
2022/07/12 07:42:41;;;;;;;6.82;0.93;;;33.70;75.10;;;33.81;31.74;102005.25;4967158;28;20045;-77
2022/07/12 07:45:10;;;;;;;3.35;0.80;;;33.90;73.20;;;33.92;31.15;102010.16;4965379;28;20034;-77
2022/07/12 07:47:49;;;;;;;1.27;0.60;;;34.00;73.70;;;34.03;30.24;102014.28;4982774;28;20449;-77
2022/07/12 07:50:15;;;;;;;3.25;1.02;;;34.10;72.30;;;34.35;30.91;102009.31;4964404;28;20026;-76
2022/07/12 07:52:42;;;;;;;3.28;1.00;;;34.20;74.60;;;34.22;31.56;102013.63;4974427;28;20093;-76
2022/07/12 07:55:08;;;;;;;7.28;0.82;;;34.40;72.70;;;34.61;32.08;102005.94;4968193;28;20542;-76
2022/07/12 07:57:34;;;;;;;2.08;0.65;;;34.00;71.70;;;33.06;32.56;102012.69;4954283;28;20038;-77
2022/07/12 07:59:59;;;;;;;5.90;0.75;;;33.00;71.80;;;31.26;34.79;101996.78;4970719;28;20030;-76
2022/07/12 08:02:25;;;;;;;4.78;1.00;;;31.90;73.10;;;30.51;35.33;101989.00;4926658;28;20038;-77
2022/07/12 08:04:51;;;;;;;3.63;0.90;;;31.60;77.30;;;31.19;35.72;101987.63;4975854;28;20034;-76
2022/07/12 08:07:17;;;;;;;2.70;0.85;;;31.70;79.10;;;31.86;35.74;101986.25;4961363;28;20032;-77
2022/07/12 08:09:43;;;;;;;3.42;0.90;;;31.90;80.90;;;32.13;35.00;101992.19;4976082;28;20037;-77
2022/07/12 08:12:09;;;;;;;3.30;0.90;;;32.00;76.70;;;31.98;34.63;101984.78;4967577;28;20096;-76
2022/07/12 08:14:35;;;;;;;3.70;0.80;;;31.70;77.00;;;31.53;34.74;101985.59;4964347;28;20097;-75
2022/07/12 08:17:01;;;;;;;3.95;0.90;;;31.30;78.50;;;30.77;36.62;101979.75;4978767;28;20022;-75
2022/07/12 08:19:26;;;;;;;5.53;0.80;;;31.20;80.20;;;30.98;36.13;101982.78;4970057;28;20033;-77
2022/07/12 08:21:55;;;;;;;1.75;0.68;;;30.90;80.80;;;30.56;37.76;101969.44;4980284;28;20030;-76
2022/07/12 08:24:21;;;;;;;2.78;0.82;;;30.60;79.30;;;30.42;37.38;101966.44;4967215;28;20061;-76
2022/07/12 08:26:48;;;;;;;6.72;1.00;;;30.30;80.50;;;29.99;37.88;101960.31;4968716;28;20165;-76
2022/07/12 08:29:14;;;;;;;3.75;1.00;;;30.20;82.20;;;29.94;38.11;101965.41;4974648;28;20441;-77
2022/07/12 08:31:39;;;;;;;6.88;1.20;;;30.00;82.50;;;29.77;38.19;101950.16;4963640;28;20041;-76
2022/07/12 08:34:05;;;;;;;4.18;1.13;;;29.80;80.30;;;29.54;37.48;101953.47;4985425;28;20029;-77
2022/07/12 08:36:31;;;;;;;3.75;1.00;;;29.70;80.60;;;29.39;38.33;101933.41;4974708;28;20051;-76
2022/07/12 08:38:57;;;;;;;6.13;1.35;;;29.40;82.90;;;28.95;39.89;101933.59;4968678;28;20030;-77
2022/07/12 08:41:23;;;;;;;1.92;0.70;;;29.00;83.70;;;28.19;40.55;101932.47;4948655;28;20406;-76
2022/07/12 08:43:48;;;;;;;5.88;0.90;;;28.70;84.50;;;27.80;42.17;101933.66;4961024;28;20080;-77
2022/07/12 08:46:15;;;;;;;2.58;0.88;;;28.40;86.10;;;27.63;42.30;101923.69;4966527;28;20100;-76
2022/07/12 08:48:43;;;;;;;5.15;0.82;;;28.10;81.60;;;27.33;40.79;101933.84;4970994;28;20703;-77
2022/07/12 08:51:17;;;;;;;3.50;0.95;;;27.90;85.30;;;27.22;43.09;101919.72;4981220;28;20052;-76
2022/07/12 08:53:43;;;;;;;5.18;1.10;;;27.80;84.90;;;26.84;42.46;101917.00;4975658;28;20088;-77
2022/07/12 08:56:39;;;;;;;3.55;1.08;;;27.50;85.30;;;26.65;44.12;101911.69;4978085;28;20038;-77
2022/07/12 08:59:18;;;;;;;6.15;1.27;;;27.30;85.90;;;26.47;43.64;101909.72;4973150;28;20432;-77
2022/07/12 09:01:52;;;;;;;5.28;1.20;;;27.20;88.00;;;26.65;44.65;101912.53;4961198;28;20082;-77
2022/07/12 09:07:19;;;;;;;4.78;1.10;;;27.30;91.10;;;26.70;46.60;101910.25;4973736;28;20026;-76
2022/07/12 09:09:44;;;;;;;6.82;1.60;;;27.30;90.30;;;26.75;45.91;101905.25;4979590;28;20033;-77
2022/07/12 09:12:22;;;;;;;4.55;1.15;;;27.40;91.00;;;26.89;46.23;101908.44;4950462;28;20524;-77
2022/07/12 09:14:53;;;;;;;4.57;1.00;;;27.40;91.20;;;26.94;45.60;101908.88;4974588;28;20018;-77
2022/07/12 09:17:22;;;;;;;3.20;0.98;;;27.50;91.30;;;26.99;45.53;101909.25;4982778;28;20077;-77
2022/07/12 09:19:55;;;;;;;10.05;1.15;;;27.50;89.60;;;26.86;44.65;101914.16;4938886;28;20117;-77
2022/07/12 09:22:24;;;;;;;8.20;1.52;;;27.50;91.10;;;27.02;45.65;101911.69;4952278;28;20037;-77
2022/07/12 09:24:50;;;;;;;5.47;1.45;;;27.50;90.20;;;26.93;45.43;101894.53;4969026;28;20037;-77
2022/07/12 09:27:30;;;;;;;4.18;1.10;;;27.60;90.60;;;27.15;45.50;101895.94;4967216;28;20635;-76
2022/07/12 09:29:56;;;;;;;4.25;1.00;;;27.70;89.40;;;27.13;45.68;101892.53;4969187;28;20021;-76
2022/07/12 09:38:14;;;;;;;8.93;1.00;;;27.40;86.90;;;26.64;44.03;101900.03;4901764;28;20072;-76
2022/07/12 09:40:41;;;;;;;3.45;1.02;;;27.40;87.30;;;26.93;43.33;101899.03;4956218;28;20027;-76
2022/07/12 09:43:07;;;;;;;1.60;0.70;;;27.40;87.50;;;26.81;44.39;101895.72;4966235;28;20033;-77
2022/07/12 09:45:34;;;;;;;4.97;1.00;;;27.40;90.20;;;26.87;44.85;101905.06;4961727;28;20034;-76
2022/07/12 09:48:04;;;;;;;4.47;0.88;;;27.30;89.80;;;26.76;45.35;101896.16;4964609;28;20027;-76
2022/07/12 09:50:38;;;;;;;12.90;1.50;;;27.40;88.60;;;26.84;44.88;101898.09;4953603;28;20438;-76
2022/07/12 09:53:09;;;;;;;4.15;1.10;;;27.50;89.10;;;27.03;44.21;101904.41;4976265;28;20102;-76
2022/07/12 09:55:42;;;;;;;2.88;0.82;;;27.50;86.30;;;27.00;43.61;101905.56;4964552;28;20017;-77
2022/07/12 09:58:16;;;;;;;4.15;0.75;;;27.50;84.60;;;26.73;41.97;101907.25;4952328;28;20064;-77
2022/07/12 10:00:43;;;;;;;1.90;0.60;;;27.40;84.00;;;26.84;42.03;101902.66;4959565;28;20092;-77
2022/07/12 10:03:12;;;;;;;4.00;1.17;;;27.50;89.10;;;27.09;42.99;101896.56;4981546;28;20040;-77
2022/07/12 10:05:45;;;;;;;3.30;0.90;;;27.50;88.60;;;26.99;42.96;101893.03;4972801;28;20100;-76
2022/07/12 10:08:14;;;;;;;5.05;1.20;;;27.50;88.80;;;26.86;44.39;101895.25;4966211;28;20049;-76
2022/07/12 10:10:43;;;;;;;4.38;0.85;;;27.60;90.70;;;27.14;45.02;101888.81;4974258;28;20034;-76
2022/07/12 10:13:12;;;;;;;3.63;0.95;;;27.60;88.40;;;27.04;44.43;101888.06;4954192;28;20544;-75
2022/07/12 10:15:44;;;;;;;1.92;0.73;;;27.60;90.00;;;26.99;44.68;101896.59;4957995;28;20033;-77
2022/07/12 10:18:22;;;;;;;2.50;0.63;;;27.50;86.40;;;26.69;43.45;101886.94;4997333;28;20536;-76
2022/07/12 10:20:51;;;;;;;3.65;0.65;;;27.20;87.50;;;26.37;44.97;101887.31;4904752;28;20145;-77
2022/07/12 10:23:37;;;;;;;5.90;0.90;;;26.90;88.10;;;26.08;45.17;101882.84;4943574;28;20484;-76
2022/07/12 10:26:15;;;;;;;5.18;0.98;;;26.90;91.10;;;26.37;46.86;101882.78;4963608;28;20049;-76
2022/07/12 10:29:10;;;;;;;4.60;1.20;;;27.00;91.80;;;26.59;46.18;101883.44;4964454;28;20495;-76